Terminal Aerodrome Forecast
Issued by NWS Anchorage, AK

Home | Current Version | Previous Version | Text Only | Print | Product List | Glossary On
Versions: 1 2 3 4 5 6 7 8 9 10 11 12 13 14 15 16 17 18 19 20 21 22 23 24 25 26 27 28 29 30 31 32 33 34 35 36 37 38 39 40 41 42 43 44 45
000
FTAK31 PANC 301740
TAFANC
TAF
PANC 301740Z 3018/3124 28007KT P6SM VCSH BKN050
      TEMPO 3018/3020 BKN015
     FM302200 26006KT P6SM BKN060
     FM310000 26006KT P6SM SCT050 BKN100
     FM311000 16005KT P6SM SCT060 BKN100
     FM311400 VRB03KT P6SM VCFG SCT005 BKN015
     FM312000 28007KT P6SM VCSH BKN045=

USA.gov is the U.S. government's official web portal to all federal, state and local government web resources and services.